• Join FlightAware (Why Join?)
  • Login
  • US Flag 
10:17PM EST


 

Airport Tracker/Info


-or-


 

Live Flight TrackerFlight Track Log ✈ TFX126 ✈ 04-Oct-2013 ✈ YSTW / TMW - YNBR / NAA

Flight Track Log - Related Links

Times and Time Zones

All times are in EDT time to prevent confusion due to time zone crossing. See the TFX126 flight status page for this flight to view local times or setup timezone preferences in your user account.

Time Position Orientation Groundspeed Altitude Reporting Facility
EDT Latitude Longitude Course Direction KTS MPH feet Rate Location/Type
07:31PM -31.0661 150.8302 311° West  Level Aus ATC (Calculated)
07:32PM -31.0196 150.7671 311° West 1,260 Level Aus ATC (Calculated)
07:34PM -30.9620 150.6891 311° West  Level FlightAware Approximate
07:34PM -30.9888 150.7189 318° Northwest 200  Level Aus ATC (Calculated)
07:35PM -30.9661 150.6951 311° West 123 142 5,500 3,780 Climbing Aus ATC (RADAR)
07:35PM -30.9581 150.6854 314° West 122 140 5,800 780 Climbing Aus ATC (RADAR)
07:37PM -30.9256 150.6430 312° West 127 146 6,800 720 Climbing Aus ATC (RADAR)
07:37PM -30.9185 150.6322 307° West 125 144 7,000 600 Climbing Aus ATC (RADAR)
07:38PM -30.8865 150.5933 314° West 131 151 7,800 360 Climbing Aus ATC (RADAR)
07:39PM -30.8546 150.5533 313° West 148 170 8,000 120 Climbing Aus ATC (RADAR)
07:40PM -30.8189 150.5081 313° West 172 198 8,100 120 Climbing Aus ATC (RADAR)
07:41PM -30.8040 150.4911 315° West 174 200 8,200 -120 Climbing Aus ATC (RADAR)
07:42PM -30.7717 150.4414 307° West 178 205 8,000 -240 Descending Aus ATC (RADAR)
07:42PM -30.7639 150.4303 309° West 176 203 7,900 -120 Descending Aus ATC (RADAR)
07:43PM -30.7448 150.4045 311° West 177 204 7,900 -480 Level Aus ATC (RADAR)
07:45PM -30.6747 150.3090 310° West 193 222 6,800 -540 Descending Aus ATC (RADAR)
07:45PM -30.6484 150.2720 309° West 195 224 6,500 -420 Descending Aus ATC (RADAR)
07:46PM -30.6400 150.2598 309° West 194 223 6,400 -480 Descending Aus ATC (RADAR)
07:46PM -30.6201 150.2317 309° West 191 220 6,100 -480 Descending Aus ATC (RADAR)
07:47PM -30.5925 150.1900 308° West 194 223 5,800 -300 Descending Aus ATC (RADAR)
07:48PM -30.5756 150.1660 309° West 191 220 5,700 -240 Descending Aus ATC (RADAR)
07:51PM -30.4483 149.9983 311° West 200 -1,800 Descending Aus ATC (Calculated)
07:53PM -30.3938 149.9268 311° West  Level FlightAware Approximate
07:54PM -30.3643 149.8882 311° West  Level FlightAware Approximate
07:55PM -30.3349 149.8496 312° West  Level FlightAware Approximate
07:56PM -30.3192 149.8272 312° West  Level Estimated
07:57PM -30.3192 149.8272 115° Southeast  Level Estimated
07:58PM -30.3192 149.8272 115° Southeast  Level Estimated
07:59PM -30.3192 149.8272 115° Southeast  Level Estimated
08:00PM -30.3192 149.8272 295° West  Level Estimated
08:01PM -30.3192 149.8272 295° West  Level Estimated
08:02PM -30.3192 149.8272 295° West  Level Estimated
08:03PM -30.3192 149.8272 295° West  Level Estimated
08:04PM -30.3192 149.8272 295° West  Level Estimated
08:05PM -30.3192 149.8272 295° West  Level Estimated
08:06PM -30.3192 149.8272 295° West  Level Estimated
08:07PM -30.3192 149.8272 295° West  Level Estimated
08:08PM -30.3192 149.8272 295° West  Level Estimated
08:09PM -30.3192 149.8272 295° West  Level Estimated
08:10PM -30.3192 149.8272 295° West  Level Estimated
08:11PM -30.3192 149.8272 295° West  Level Estimated
08:12PM -30.3192 149.8272 295° West  Level Estimated
08:13PM -30.3192 149.8272 295° West  Level Estimated